Time;durP1;ratioP1;P1;durP2;ratioP2;P2;SDS_P1;SDS_P2;PMS_P1;PMS_P2;Temp;Humidity;BMP_temperature;BMP_pressure;BME280_temperature;BME280_humidity;BME280_pressure;Samples;Min_cycle;Max_cycle;Signal;HPM_P1;HPM_P2
2022/01/10 00:01:43;;;;;;;9.20;3.30;;;2.40;99.90;;;;;;5035326;28;20064;-79
2022/01/10 00:04:08;;;;;;;5.95;2.75;;;2.50;99.90;;;;;;5034984;28;20049;-82
2022/01/10 00:06:35;;;;;;;6.22;2.22;;;2.30;99.90;;;;;;5050202;28;20052;-81
2022/01/10 00:09:02;;;;;;;8.55;2.15;;;2.30;99.90;;;;;;5027385;28;20037;-82
2022/01/10 00:11:28;;;;;;;2.35;1.85;;;2.30;99.90;;;;;;5027112;28;20336;-85
2022/01/10 00:13:53;;;;;;;2.03;1.80;;;2.20;99.90;;;;;;5030427;28;20041;-81
2022/01/10 00:16:19;;;;;;;3.38;2.55;;;2.20;99.90;;;;;;5053177;28;20498;-81
2022/01/10 00:18:45;;;;;;;5.03;2.50;;;2.20;99.90;;;;;;5037142;28;20135;-78
2022/01/10 00:21:10;;;;;;;2.65;2.35;;;2.10;99.90;;;;;;5051753;28;20040;-77
2022/01/10 00:23:36;;;;;;;2.85;1.15;;;3.10;99.90;;;;;;5051591;28;20497;-82
2022/01/10 00:26:02;;;;;;;3.58;2.08;;;2.20;99.90;;;;;;5046953;28;20037;-81
2022/01/10 00:28:28;;;;;;;7.65;2.17;;;2.10;99.90;;;;;;5046862;28;20122;-80
2022/01/10 00:30:54;;;;;;;3.35;2.20;;;2.00;99.90;;;;;;5027439;28;20076;-82
2022/01/10 00:33:19;;;;;;;2.38;1.92;;;2.70;99.90;;;;;;5044363;28;20464;-83
2022/01/10 00:35:45;;;;;;;4.03;3.03;;;1.80;99.90;;;;;;5051151;28;20040;-81
2022/01/10 00:38:11;;;;;;;8.15;2.75;;;1.80;99.90;;;;;;5034491;28;20048;-83
2022/01/10 00:40:36;;;;;;;7.28;2.13;;;1.80;99.90;;;;;;5045306;28;20044;-80
2022/01/10 00:43:02;;;;;;;7.43;2.17;;;2.00;99.90;;;;;;5051405;28;20045;-78
2022/01/10 00:45:28;;;;;;;12.07;2.53;;;1.80;99.90;;;;;;5049021;28;20041;-84
2022/01/10 00:47:56;;;;;;;2.38;2.17;;;1.70;99.90;;;;;;5049811;28;20124;-78
2022/01/10 00:50:24;;;;;;;1.60;1.50;;;1.80;99.90;;;;;;5016391;28;20041;-80
2022/01/10 00:52:50;;;;;;;3.67;2.53;;;1.80;99.90;;;;;;5046463;28;20120;-80
2022/01/10 00:55:16;;;;;;;4.68;1.75;;;1.80;99.90;;;;;;5034873;28;20077;-80
2022/01/10 00:57:42;;;;;;;8.70;2.42;;;1.70;99.90;;;;;;5028339;28;20399;-83
2022/01/10 01:00:13;;;;;;;1.38;1.25;;;1.60;99.90;;;;;;5057248;28;20049;-78
2022/01/10 01:02:39;;;;;;;4.20;1.90;;;1.60;99.90;;;;;;5056812;28;20037;-83
2022/01/10 01:05:08;;;;;;;2.70;1.95;;;1.50;99.90;;;;;;5035556;28;20035;-85
2022/01/10 01:07:35;;;;;;;1.83;1.73;;;1.50;99.90;;;;;;5049669;28;20041;-84
2022/01/10 01:13:06;;;;;;;3.90;2.50;;;1.40;99.90;;;;;;5044948;28;20044;-80
2022/01/10 01:15:44;;;;;;;3.25;2.25;;;1.50;99.90;;;;;;5045375;28;20091;-79
2022/01/10 01:18:16;;;;;;;3.22;1.80;;;1.40;99.90;;;;;;5051011;28;20481;-84
2022/01/10 01:20:45;;;;;;;3.67;1.85;;;2.30;99.90;;;;;;5050932;28;20706;-83
2022/01/10 01:26:04;;;;;;;5.53;2.55;;;1.40;99.90;;;;;;5049233;28;20045;-83
2022/01/10 01:28:30;;;;;;;3.83;2.15;;;1.40;99.90;;;;;;5050217;28;20147;-81
2022/01/10 01:30:56;;;;;;;5.53;1.83;;;1.40;99.90;;;;;;5052084;28;20037;-80
2022/01/10 01:33:24;;;;;;;4.13;2.50;;;1.40;99.90;;;;;;5051509;28;20536;-83
2022/01/10 01:35:51;;;;;;;4.07;2.42;;;1.80;99.90;;;;;;5049732;28;20080;-79
2022/01/10 01:38:17;;;;;;;1.60;1.50;;;1.40;99.90;;;;;;5049249;28;20087;-81
2022/01/10 01:40:51;;;;;;;2.47;2.28;;;2.00;99.90;;;;;;5034315;28;20451;-83
2022/01/10 01:43:17;;;;;;;2.38;2.17;;;1.30;99.90;;;;;;5044286;28;20061;-82
2022/01/10 01:45:45;;;;;;;2.35;1.65;;;1.30;99.90;;;;;;5028457;28;20047;-81
2022/01/10 01:48:12;;;;;;;2.83;1.45;;;1.40;99.90;;;;;;5041109;28;20033;-81
2022/01/10 01:50:38;;;;;;;3.97;2.13;;;1.30;99.90;;;;;;5032346;28;20132;-81
2022/01/10 01:53:04;;;;;;;;;;;1.30;99.90;;;;;;5021997;28;20037;-82
2022/01/10 01:55:30;;;;;;;3.83;3.10;;;1.20;99.90;;;;;;5050248;28;19943;-80
2022/01/10 01:57:56;;;;;;;2.35;2.15;;;2.10;99.90;;;;;;5034662;28;20041;-81
2022/01/10 02:00:23;;;;;;;1.75;1.65;;;1.30;99.90;;;;;;5042503;28;20041;-80
2022/01/10 02:02:53;;;;;;;2.75;1.73;;;1.20;99.90;;;;;;5061162;28;20037;-84
2022/01/10 02:05:19;;;;;;;2.00;1.65;;;1.80;99.90;;;;;;5048773;28;20052;-80
2022/01/10 02:07:45;;;;;;;2.90;2.10;;;1.20;99.90;;;;;;5031735;28;20090;-81
2022/01/10 02:10:12;;;;;;;5.43;2.80;;;1.20;99.90;;;;;;5034102;28;20047;-82
2022/01/10 02:12:39;;;;;;;1.35;1.25;;;1.10;99.90;;;;;;5052623;28;20056;-82
2022/01/10 02:15:06;;;;;;;2.88;1.77;;;1.10;99.90;;;;;;5044061;28;20049;-82
2022/01/10 02:17:36;;;;;;;2.50;1.70;;;1.10;99.90;;;;;;5035232;28;20475;-84
2022/01/10 02:20:07;;;;;;;2.00;1.77;;;1.40;99.90;;;;;;5043310;28;20052;-82
2022/01/10 02:22:33;;;;;;;1.83;1.73;;;1.00;99.90;;;;;;5065146;28;20048;-80
2022/01/10 02:24:59;;;;;;;2.10;1.83;;;1.50;99.90;;;;;;5041471;28;20796;-80
2022/01/10 02:27:25;;;;;;;4.18;2.35;;;1.00;99.90;;;;;;5047215;28;20175;-80
2022/01/10 02:29:52;;;;;;;4.32;2.80;;;1.00;99.90;;;;;;5027911;28;20038;-79
2022/01/10 02:32:20;;;;;;;3.95;3.55;;;1.00;99.90;;;;;;5046408;28;20045;-79
2022/01/10 02:34:46;;;;;;;2.38;2.13;;;1.00;99.90;;;;;;5044597;28;20086;-79
2022/01/10 02:37:28;;;;;;;6.65;2.40;;;1.00;99.90;;;;;;5045555;28;20442;-82
2022/01/10 02:39:54;;;;;;;2.00;1.88;;;1.00;99.90;;;;;;5045076;28;20045;-83
2022/01/10 02:42:19;;;;;;;5.53;2.08;;;0.90;99.90;;;;;;5050566;28;20059;-79
2022/01/10 02:44:45;;;;;;;2.92;1.52;;;1.00;99.90;;;;;;5052138;28;20045;-80
2022/01/10 02:47:11;;;;;;;3.78;3.45;;;1.30;99.90;;;;;;5050726;28;20091;-82
2022/01/10 02:49:37;;;;;;;5.20;2.47;;;1.60;99.90;;;;;;5053349;28;20052;-80
2022/01/10 02:52:04;;;;;;;2.15;1.67;;;0.90;99.90;;;;;;5049872;28;20067;-81
2022/01/10 02:54:29;;;;;;;5.18;2.40;;;0.90;99.90;;;;;;5038882;28;20390;-80
2022/01/10 02:56:56;;;;;;;5.78;2.53;;;0.80;99.90;;;;;;5051260;28;20048;-82
2022/01/10 02:59:23;;;;;;;4.07;2.80;;;0.80;99.90;;;;;;5049400;28;20037;-79
2022/01/10 03:01:50;;;;;;;2.67;2.47;;;0.80;99.90;;;;;;5049476;28;20526;-80
2022/01/10 03:04:16;;;;;;;8.65;2.35;;;0.80;99.90;;;;;;5040552;28;20041;-82
2022/01/10 03:06:44;;;;;;;9.85;3.00;;;0.80;99.90;;;;;;5045940;28;20041;-80
2022/01/10 03:09:10;;;;;;;2.35;1.90;;;0.90;99.90;;;;;;5050268;28;20032;-80
2022/01/10 03:11:41;;;;;;;5.63;3.13;;;0.80;99.90;;;;;;5050323;28;20116;-80
2022/01/10 03:14:07;;;;;;;4.93;1.60;;;0.80;99.90;;;;;;5052547;28;20037;-80
2022/01/10 03:16:33;;;;;;;2.05;1.83;;;0.90;99.90;;;;;;5046795;28;20059;-79
2022/01/10 03:18:59;;;;;;;5.72;3.25;;;0.80;99.90;;;;;;5049914;28;20046;-80
2022/01/10 03:21:25;;;;;;;2.97;2.78;;;0.90;99.90;;;;;;5046753;28;20040;-80
2022/01/10 03:23:51;;;;;;;4.07;2.17;;;0.80;99.90;;;;;;5036819;28;20037;-81
2022/01/10 03:26:20;;;;;;;3.95;2.03;;;0.80;99.90;;;;;;5053737;28;20049;-79
2022/01/10 03:28:47;;;;;;;2.92;2.30;;;0.70;99.90;;;;;;5053331;28;20045;-81
2022/01/10 03:31:13;;;;;;;6.32;2.97;;;0.60;99.90;;;;;;5032723;28;20120;-82
2022/01/10 03:33:38;;;;;;;2.25;1.70;;;0.60;99.90;;;;;;5054760;28;20049;-80
2022/01/10 03:36:04;;;;;;;5.78;2.17;;;0.60;99.90;;;;;;5054474;28;20052;-82
2022/01/10 03:38:30;;;;;;;5.68;3.47;;;1.10;99.90;;;;;;5055378;28;20041;-82
2022/01/10 03:40:56;;;;;;;4.35;2.58;;;0.70;99.90;;;;;;5048601;28;20502;-84
2022/01/10 03:43:22;;;;;;;;;;;0.80;99.90;;;;;;5054202;28;20063;-83
2022/01/10 03:45:48;;;;;;;6.55;1.95;;;0.70;99.90;;;;;;5053984;28;19916;-83
2022/01/10 03:48:14;;;;;;;7.30;3.33;;;1.50;99.90;;;;;;5052993;28;20072;-81
2022/01/10 03:50:39;;;;;;;3.08;1.95;;;0.70;99.90;;;;;;5030416;28;20045;-84
2022/01/10 03:53:05;;;;;;;10.23;3.63;;;0.70;99.90;;;;;;5044738;28;20045;-84
2022/01/10 03:55:31;;;;;;;5.20;3.35;;;0.70;99.90;;;;;;5050401;28;20044;-84
2022/01/10 03:57:56;;;;;;;7.85;3.95;;;0.70;99.90;;;;;;5029859;28;20124;-81
2022/01/10 04:00:22;;;;;;;7.60;2.25;;;0.70;99.90;;;;;;5053078;28;20041;-84
2022/01/10 04:02:55;;;;;;;4.70;2.75;;;0.70;99.90;;;;;;5053575;28;20133;-82
2022/01/10 04:05:22;;;;;;;6.57;2.42;;;0.70;99.90;;;;;;5035106;28;20045;-82
2022/01/10 04:07:48;;;;;;;7.03;3.17;;;0.80;99.90;;;;;;5036699;28;20048;-83
2022/01/10 04:10:14;;;;;;;4.80;2.60;;;0.80;99.90;;;;;;5052960;28;20041;-83
2022/01/10 04:12:39;;;;;;;2.67;2.35;;;0.70;99.90;;;;;;5058843;28;20497;-80
2022/01/10 04:15:06;;;;;;;3.40;2.65;;;0.80;99.90;;;;;;5034022;28;20128;-81
2022/01/10 04:17:31;;;;;;;;;;;0.80;99.90;;;;;;5036821;28;20049;-82
2022/01/10 04:19:57;;;;;;;11.75;3.17;;;0.70;99.90;;;;;;5049241;28;19947;-83
2022/01/10 04:22:23;;;;;;;12.40;2.65;;;0.70;99.90;;;;;;5047536;28;20044;-80
2022/01/10 04:24:48;;;;;;;7.05;2.85;;;0.70;99.90;;;;;;5047467;28;20041;-81
2022/01/10 04:27:14;;;;;;;2.58;2.20;;;0.70;99.90;;;;;;5052280;28;20459;-80
2022/01/10 04:29:40;;;;;;;4.50;3.13;;;0.70;99.90;;;;;;5052408;28;20040;-81
2022/01/10 04:32:07;;;;;;;6.65;2.67;;;0.70;99.90;;;;;;5052175;28;20040;-82
2022/01/10 04:34:33;;;;;;;7.55;3.97;;;0.70;99.90;;;;;;5032115;28;20045;-81
2022/01/10 04:36:58;;;;;;;4.97;3.60;;;0.60;99.90;;;;;;5031968;28;20044;-84
2022/01/10 04:39:24;;;;;;;10.88;3.65;;;0.50;99.90;;;;;;5052506;28;20076;-83
2022/01/10 04:41:50;;;;;;;4.57;3.47;;;0.50;99.90;;;;;;5051309;28;20060;-82
2022/01/10 04:44:15;;;;;;;4.72;3.00;;;0.50;99.90;;;;;;5052113;28;20068;-82
2022/01/10 04:46:41;;;;;;;7.32;2.72;;;0.50;99.90;;;;;;5027109;28;20060;-83
2022/01/10 04:49:14;;;;;;;6.47;2.95;;;0.50;99.90;;;;;;5037212;28;20051;-83
2022/01/10 04:51:40;;;;;;;7.18;3.88;;;0.50;99.90;;;;;;5051686;28;20061;-82
2022/01/10 04:54:05;;;;;;;10.00;4.22;;;0.50;99.90;;;;;;5048692;28;20442;-82
2022/01/10 04:56:32;;;;;;;5.80;4.13;;;0.60;99.90;;;;;;5016973;28;20403;-81
2022/01/10 04:58:58;;;;;;;8.30;3.75;;;0.60;99.90;;;;;;5028484;28;20120;-83
2022/01/10 05:01:23;;;;;;;6.00;4.03;;;0.50;99.90;;;;;;5042573;28;20144;-83
2022/01/10 05:03:49;;;;;;;4.05;3.45;;;0.50;99.90;;;;;;5052028;28;20041;-83
2022/01/10 05:06:15;;;;;;;5.32;3.80;;;0.50;99.90;;;;;;5050180;28;20478;-83
2022/01/10 05:08:41;;;;;;;4.10;3.33;;;0.50;99.90;;;;;;5035756;28;20033;-83
2022/01/10 05:11:08;;;;;;;7.60;4.22;;;0.50;99.90;;;;;;5056204;28;20371;-83
2022/01/10 05:13:34;;;;;;;;;;;0.40;99.90;;;;;;5052344;28;20045;-84
2022/01/10 05:16:00;;;;;;;9.18;5.00;;;0.40;99.90;;;;;;5035889;28;19917;-84
2022/01/10 05:18:25;;;;;;;7.38;3.20;;;0.40;99.90;;;;;;5051688;28;20425;-82
2022/01/10 05:20:51;;;;;;;7.68;3.20;;;0.30;99.90;;;;;;5032634;28;20087;-82
2022/01/10 05:23:17;;;;;;;3.50;2.70;;;0.30;99.90;;;;;;5051049;28;20048;-84
2022/01/10 05:25:43;;;;;;;4.35;3.95;;;0.30;99.90;;;;;;5050100;28;20044;-81
2022/01/10 05:28:12;;;;;;;8.35;3.47;;;0.20;99.90;;;;;;5051544;28;20037;-83
2022/01/10 05:30:39;;;;;;;5.25;3.30;;;0.20;99.90;;;;;;5053185;28;20079;-84
2022/01/10 05:33:07;;;;;;;12.23;4.03;;;0.10;99.90;;;;;;5048455;28;20049;-82
2022/01/10 05:35:34;;;;;;;5.45;3.22;;;0.10;99.90;;;;;;5050922;28;20041;-82
2022/01/10 05:38:00;;;;;;;3.92;2.88;;;0.10;99.90;;;;;;5031232;28;20045;-83
2022/01/10 05:40:26;;;;;;;9.05;4.60;;;0.10;99.90;;;;;;5042586;28;20049;-82
2022/01/10 05:42:52;;;;;;;7.75;3.53;;;0.20;99.90;;;;;;5037161;28;20059;-82
2022/01/10 05:45:18;;;;;;;;;;;0.20;99.90;;;;;;5051137;28;20041;-83
2022/01/10 05:47:45;;;;;;;3.65;2.95;;;0.30;99.90;;;;;;5051327;28;20331;-82
2022/01/10 05:50:14;;;;;;;3.60;3.30;;;0.30;99.90;;;;;;5051069;28;20052;-83
2022/01/10 05:52:40;;;;;;;4.47;3.45;;;0.20;99.90;;;;;;5051080;28;20037;-82
2022/01/10 05:55:06;;;;;;;13.27;5.18;;;0.20;99.90;;;;;;5048038;28;20045;-83
2022/01/10 05:57:32;;;;;;;4.28;3.58;;;0.20;99.90;;;;;;5050838;28;20044;-83
2022/01/10 05:59:58;;;;;;;8.70;3.53;;;0.20;99.90;;;;;;5051369;28;20390;-83
2022/01/10 06:02:23;;;;;;;10.95;4.70;;;0.10;99.90;;;;;;5050840;28;20080;-83
2022/01/10 06:04:49;;;;;;;11.18;4.45;;;0.10;99.90;;;;;;5066173;28;20055;-83
2022/01/10 06:07:15;;;;;;;4.13;3.47;;;0.10;99.90;;;;;;5063680;28;20044;-82
2022/01/10 06:09:41;;;;;;;5.57;3.67;;;0.10;99.90;;;;;;5050068;28;20083;-83
2022/01/10 06:12:07;;;;;;;4.15;2.90;;;0.10;99.90;;;;;;5046737;28;20102;-84
2022/01/10 06:14:33;;;;;;;9.80;5.97;;;0.00;99.90;;;;;;5049757;28;20114;-83
2022/01/10 06:16:58;;;;;;;5.38;4.80;;;0.00;99.90;;;;;;5050684;28;20036;-83
2022/01/10 06:19:24;;;;;;;5.63;3.80;;;0.80;99.90;;;;;;5034819;28;20045;-83
2022/01/10 06:21:50;;;;;;;7.72;4.60;;;-0.20;99.90;;;;;;5050696;28;20045;-84
2022/01/10 06:24:16;;;;;;;7.72;4.40;;;-0.20;99.90;;;;;;5048071;28;20049;-83
2022/01/10 06:26:42;;;;;;;8.95;3.65;;;-0.30;99.90;;;;;;5050178;28;20056;-82
2022/01/10 06:29:08;;;;;;;7.63;5.85;;;-0.40;99.90;;;;;;5047350;28;20068;-84
2022/01/10 06:31:34;;;;;;;7.88;4.60;;;-0.40;99.90;;;;;;5051776;28;20033;-83
2022/01/10 06:34:00;;;;;;;5.65;4.38;;;-0.30;99.90;;;;;;5032130;28;20041;-84
2022/01/10 06:36:26;;;;;;;6.57;4.55;;;-0.30;99.90;;;;;;5037446;28;20488;-82
2022/01/10 06:38:51;;;;;;;9.05;4.85;;;-0.30;99.90;;;;;;5047682;28;20086;-84
2022/01/10 06:41:17;;;;;;;5.35;4.85;;;-0.40;99.90;;;;;;5049915;28;20051;-81
2022/01/10 06:43:43;;;;;;;6.80;4.93;;;-0.40;99.90;;;;;;5051181;28;20401;-83
2022/01/10 06:46:09;;;;;;;16.90;6.72;;;-0.30;99.90;;;;;;5050761;28;20048;-82
2022/01/10 06:48:34;;;;;;;6.60;5.15;;;-0.30;99.90;;;;;;5049580;28;20136;-82
2022/01/10 06:51:00;;;;;;;10.68;4.43;;;-0.20;99.90;;;;;;5055657;28;20057;-83
2022/01/10 06:53:26;;;;;;;6.00;3.83;;;-0.10;99.90;;;;;;5047314;28;20486;-82
2022/01/10 06:55:51;;;;;;;11.80;6.03;;;0.00;99.90;;;;;;5047305;28;20048;-83
2022/01/10 06:58:17;;;;;;;4.13;3.70;;;-0.20;99.90;;;;;;5049467;28;20037;-82
2022/01/10 07:00:44;;;;;;;5.20;4.70;;;0.20;99.90;;;;;;5050539;28;20048;-83
2022/01/10 07:03:10;;;;;;;10.27;6.00;;;-0.30;99.90;;;;;;5049556;28;20041;-83
2022/01/10 07:05:36;;;;;;;5.95;5.32;;;-0.20;99.90;;;;;;5041007;28;20387;-81
2022/01/10 07:08:04;;;;;;;22.80;7.53;;;0.90;99.90;;;;;;5024699;28;20500;-82
2022/01/10 07:10:29;;;;;;;4.97;4.55;;;-0.10;99.90;;;;;;5030895;28;20102;-83
2022/01/10 07:12:55;;;;;;;7.03;3.80;;;0.00;99.90;;;;;;5027766;28;20034;-81
2022/01/10 07:15:24;;;;;;;13.73;7.78;;;1.30;99.90;;;;;;5073041;28;20689;-80
2022/01/10 07:17:50;;;;;;;8.32;5.90;;;0.80;99.90;;;;;;5045106;28;20092;-85
2022/01/10 07:20:15;;;;;;;8.68;4.30;;;1.20;99.90;;;;;;5028994;28;20096;-81
2022/01/10 07:22:41;;;;;;;12.27;6.30;;;1.00;99.90;;;;;;5059994;28;20513;-82
2022/01/10 07:25:08;;;;;;;9.48;5.35;;;-0.10;99.90;;;;;;5020074;28;20056;-80
2022/01/10 07:27:34;;;;;;;8.95;5.00;;;0.20;99.90;;;;;;5048342;28;20029;-81
2022/01/10 07:30:01;;;;;;;18.10;5.70;;;1.20;99.90;;;;;;5043586;28;20082;-81
2022/01/10 07:32:29;;;;;;;9.93;5.80;;;0.10;99.90;;;;;;5030092;28;20036;-80
2022/01/10 07:34:58;;;;;;;8.32;4.60;;;0.10;99.90;;;;;;5047215;28;20155;-78
2022/01/10 07:37:24;;;;;;;11.25;5.88;;;0.00;99.90;;;;;;5046438;28;20045;-78
2022/01/10 07:39:50;;;;;;;;;;;-0.10;99.90;;;;;;5042786;28;20103;-80
2022/01/10 07:42:16;;;;;;;6.88;4.45;;;-0.20;99.90;;;;;;5041319;28;20011;-79
2022/01/10 07:44:43;;;;;;;8.38;6.55;;;-0.20;99.90;;;;;;5044661;28;20542;-81
2022/01/10 07:47:09;;;;;;;7.45;5.97;;;-0.20;99.90;;;;;;5026401;28;20086;-79
2022/01/10 07:49:35;;;;;;;4.72;3.65;;;-0.30;99.90;;;;;;5017781;28;20149;-80
2022/01/10 07:52:01;;;;;;;6.28;4.75;;;0.80;99.90;;;;;;5046304;28;20037;-81
2022/01/10 07:54:27;;;;;;;4.95;3.63;;;-0.30;99.90;;;;;;5051315;28;20048;-81
2022/01/10 07:56:54;;;;;;;10.05;5.55;;;0.00;99.90;;;;;;5009593;28;20049;-80
2022/01/10 07:59:22;;;;;;;14.63;5.47;;;0.60;99.90;;;;;;5095787;28;20049;-80
2022/01/10 08:01:49;;;;;;;9.05;5.30;;;1.50;99.90;;;;;;5045246;28;20048;-80
2022/01/10 08:04:15;;;;;;;9.18;6.82;;;-0.20;99.90;;;;;;5051131;28;20037;-79
2022/01/10 08:06:41;;;;;;;15.65;7.53;;;-0.20;99.90;;;;;;5038748;28;20468;-83
2022/01/10 08:09:07;;;;;;;12.05;7.13;;;1.10;99.90;;;;;;5031672;28;20116;-80
2022/01/10 08:11:33;;;;;;;7.70;5.93;;;-0.10;99.90;;;;;;5027128;28;20034;-82
2022/01/10 08:14:00;;;;;;;15.18;7.22;;;1.60;99.90;;;;;;5047861;28;20540;-81
2022/01/10 08:16:27;;;;;;;5.85;4.63;;;;;;;;;;5052069;28;20079;-83
2022/01/10 08:18:52;;;;;;;;;;;0.00;99.90;;;;;;5031620;28;20733;-84
2022/01/10 08:21:18;;;;;;;7.65;5.50;;;0.30;99.90;;;;;;5058953;28;19921;-81
2022/01/10 08:23:44;;;;;;;7.72;4.85;;;1.50;99.90;;;;;;5035393;28;20041;-79
2022/01/10 08:26:10;;;;;;;8.95;7.57;;;0.10;99.90;;;;;;5030332;28;20041;-79
2022/01/10 08:28:37;;;;;;;14.85;6.57;;;0.10;99.90;;;;;;5048111;28;20119;-81
2022/01/10 08:31:03;;;;;;;7.20;6.60;;;1.40;99.90;;;;;;5047543;28;20048;-80
2022/01/10 08:33:29;;;;;;;5.88;4.88;;;0.20;99.90;;;;;;5042921;28;20124;-83
2022/01/10 08:35:55;;;;;;;8.52;6.55;;;0.20;99.90;;;;;;5028111;28;20071;-81
2022/01/10 08:38:21;;;;;;;11.13;6.93;;;0.10;99.90;;;;;;5031322;28;20057;-82
2022/01/10 08:40:47;;;;;;;9.57;6.38;;;1.80;99.90;;;;;;5030822;28;20045;-78
2022/01/10 08:43:13;;;;;;;7.75;4.88;;;-0.10;99.90;;;;;;5056700;28;20056;-84
2022/01/10 08:45:39;;;;;;;;;;;-0.20;99.90;;;;;;5018178;28;20044;-83
2022/01/10 08:48:06;;;;;;;9.85;6.72;;;0.00;99.90;;;;;;5029275;28;19974;-82
2022/01/10 08:50:33;;;;;;;12.88;6.07;;;0.00;99.90;;;;;;5051226;28;20041;-81
2022/01/10 08:53:00;;;;;;;9.48;5.22;;;0.10;99.90;;;;;;5030386;28;20160;-79
2022/01/10 08:55:26;;;;;;;7.35;5.82;;;0.20;99.90;;;;;;5048980;28;20088;-82
2022/01/10 08:57:52;;;;;;;7.55;6.80;;;1.90;99.90;;;;;;5031530;28;20080;-80
2022/01/10 09:00:17;;;;;;;19.45;7.53;;;0.30;99.90;;;;;;5031109;28;20067;-82
2022/01/10 09:02:43;;;;;;;9.25;6.00;;;0.40;99.90;;;;;;5010324;28;20460;-80
2022/01/10 09:05:10;;;;;;;17.10;6.93;;;0.50;99.90;;;;;;5029350;28;20040;-80
2022/01/10 09:07:35;;;;;;;;;;;0.60;99.90;;;;;;5027662;28;20079;-82
2022/01/10 09:10:01;;;;;;;9.18;5.60;;;0.70;99.90;;;;;;5025101;28;19964;-79
2022/01/10 09:12:27;;;;;;;9.48;5.55;;;0.80;99.90;;;;;;5028061;28;20052;-80
2022/01/10 09:14:53;;;;;;;17.08;7.95;;;0.80;99.90;;;;;;5015296;28;20057;-81
2022/01/10 09:17:18;;;;;;;12.13;7.28;;;0.10;99.90;;;;;;5030922;28;20042;-80
2022/01/10 09:19:44;;;;;;;21.55;7.20;;;-0.40;99.90;;;;;;5032052;28;20437;-79
2022/01/10 09:22:10;;;;;;;8.10;5.30;;;1.10;99.90;;;;;;5035770;28;20040;-81
2022/01/10 09:24:36;;;;;;;11.90;7.10;;;2.30;99.90;;;;;;5031939;28;20044;-79
2022/01/10 09:27:02;;;;;;;14.85;7.30;;;2.00;99.90;;;;;;5030145;28;20037;-80
2022/01/10 09:29:28;;;;;;;16.38;6.90;;;1.20;99.90;;;;;;5025684;28;20033;-79
2022/01/10 09:31:53;;;;;;;9.48;8.45;;;1.20;99.90;;;;;;5039140;28;20064;-80
2022/01/10 09:34:19;;;;;;;17.80;8.20;;;1.10;99.90;;;;;;5045296;28;20053;-80
2022/01/10 09:36:45;;;;;;;11.10;8.05;;;1.00;99.90;;;;;;5047876;28;20091;-80
2022/01/10 09:39:13;;;;;;;34.78;9.00;;;1.30;99.90;;;;;;5022996;28;20041;-79
2022/01/10 09:41:40;;;;;;;19.75;9.88;;;1.50;99.90;;;;;;5046790;28;20040;-78
2022/01/10 09:44:06;;;;;;;17.95;7.43;;;1.50;99.90;;;;;;5062232;28;20634;-79
2022/01/10 09:46:33;;;;;;;13.63;7.43;;;1.50;99.90;;;;;;5030408;28;20765;-79
2022/01/10 09:49:01;;;;;;;18.10;7.20;;;1.00;99.90;;;;;;5030237;28;20042;-79
2022/01/10 09:51:29;;;;;;;25.40;8.00;;;1.60;99.90;;;;;;5027933;28;20486;-79
2022/01/10 09:54:00;;;;;;;10.38;6.82;;;3.10;99.90;;;;;;5029803;28;20060;-80
2022/01/10 09:56:28;;;;;;;14.13;7.20;;;2.90;99.90;;;;;;5027517;28;20041;-81
2022/01/10 09:58:54;;;;;;;19.27;8.27;;;1.70;99.90;;;;;;5050417;28;20060;-78
2022/01/10 10:01:21;;;;;;;15.70;9.25;;;1.70;99.90;;;;;;5050791;28;20043;-79
2022/01/10 10:03:48;;;;;;;11.35;9.82;;;3.50;99.90;;;;;;5051717;28;20041;-79
2022/01/10 10:06:14;;;;;;;21.80;7.57;;;1.80;99.90;;;;;;5023256;28;20048;-79
2022/01/10 10:08:40;;;;;;;14.13;10.32;;;3.20;99.90;;;;;;5019885;28;20128;-79
2022/01/10 10:11:08;;;;;;;17.10;9.18;;;1.80;99.90;;;;;;5060701;28;20156;-77
2022/01/10 10:13:51;;;;;;;13.48;8.93;;;2.60;99.90;;;;;;5028392;28;20049;-80
2022/01/10 10:16:18;;;;;;;15.52;8.13;;;2.00;99.90;;;;;;5033620;28;20052;-79
2022/01/10 10:18:46;;;;;;;20.60;6.88;;;2.10;99.90;;;;;;5041754;28;20386;-78
2022/01/10 10:21:14;;;;;;;12.35;7.32;;;2.20;99.90;;;;;;5016610;28;20043;-79
2022/01/10 10:23:41;;;;;;;16.02;9.35;;;2.20;99.90;;;;;;5037684;28;20049;-79
2022/01/10 10:26:07;;;;;;;11.63;7.95;;;2.30;99.90;;;;;;5027958;28;20482;-80
2022/01/10 10:28:35;;;;;;;;;;;2.60;99.90;;;;;;5026704;28;20483;-79
2022/01/10 10:31:01;;;;;;;12.05;7.32;;;2.70;99.90;;;;;;5046325;28;20007;-78
2022/01/10 10:33:27;;;;;;;16.00;8.85;;;2.50;99.90;;;;;;5044495;28;20477;-79
2022/01/10 10:35:57;;;;;;;19.30;10.35;;;2.50;99.90;;;;;;5031570;28;20069;-79
2022/01/10 10:38:25;;;;;;;8.25;7.07;;;2.60;99.90;;;;;;5033353;28;20051;-78
2022/01/10 10:40:51;;;;;;;10.15;6.93;;;3.30;99.90;;;;;;5033806;28;20182;-79
2022/01/10 10:43:17;;;;;;;20.75;8.18;;;2.80;99.90;;;;;;5036424;28;20494;-78
2022/01/10 10:45:48;;;;;;;11.15;6.32;;;2.80;99.90;;;;;;5041776;28;20048;-79
2022/01/10 10:48:16;;;;;;;13.75;7.75;;;2.80;99.90;;;;;;5039822;28;20098;-78
2022/01/10 10:50:46;;;;;;;14.43;7.28;;;2.80;99.90;;;;;;5025768;28;20076;-79
2022/01/10 10:53:14;;;;;;;11.75;7.32;;;2.90;99.90;;;;;;5039012;28;20120;-80
2022/01/10 10:55:45;;;;;;;18.60;8.10;;;3.70;99.90;;;;;;5045430;28;20052;-79
2022/01/10 10:58:13;;;;;;;11.65;8.05;;;3.10;99.90;;;;;;5046022;28;20055;-80
2022/01/10 11:00:39;;;;;;;12.40;8.82;;;3.30;99.90;;;;;;5031809;28;20044;-79
2022/01/10 11:03:05;;;;;;;8.65;7.30;;;3.20;99.90;;;;;;5026812;28;20369;-79
2022/01/10 11:05:33;;;;;;;21.45;10.30;;;4.50;99.90;;;;;;5020317;28;20486;-78
2022/01/10 11:08:00;;;;;;;11.10;6.32;;;3.30;99.90;;;;;;5042131;28;20132;-80
2022/01/10 11:10:26;;;;;;;12.55;8.13;;;3.40;99.90;;;;;;5062604;28;20033;-79
2022/01/10 11:12:58;;;;;;;13.70;7.00;;;3.50;99.90;;;;;;5031676;28;20386;-79
2022/01/10 11:15:24;;;;;;;9.07;7.03;;;3.50;99.90;;;;;;5044614;28;20045;-78
2022/01/10 11:17:52;;;;;;;;;;;3.50;99.90;;;;;;5014778;28;20156;-79
2022/01/10 11:20:21;;;;;;;20.23;10.50;;;3.70;99.90;;;;;;5043972;28;20395;-79
2022/01/10 11:22:55;;;;;;;9.82;7.50;;;3.60;99.90;;;;;;5036857;28;20116;-78
2022/01/10 11:25:33;;;;;;;12.45;8.23;;;4.40;99.90;;;;;;5038636;28;20698;-79
2022/01/10 11:28:08;;;;;;;8.77;6.35;;;3.70;99.90;;;;;;5044694;28;20049;-78
2022/01/10 11:30:44;;;;;;;10.70;6.00;;;3.80;99.90;;;;;;5041889;28;20617;-76
2022/01/10 11:33:15;;;;;;;10.60;7.47;;;3.80;99.90;;;;;;5040523;28;20096;-76
2022/01/10 11:35:51;;;;;;;14.07;8.15;;;3.90;99.90;;;;;;5040447;28;20054;-77
2022/01/10 11:38:29;;;;;;;15.07;8.85;;;3.90;99.90;;;;;;5029323;28;20049;-78
2022/01/10 11:41:04;;;;;;;14.82;9.20;;;4.00;99.90;;;;;;5047701;28;20055;-78
2022/01/10 11:43:37;;;;;;;13.40;8.55;;;4.00;99.90;;;;;;5049668;28;20053;-78
2022/01/10 11:46:23;;;;;;;11.27;6.40;;;4.10;99.90;;;;;;5022341;28;20054;-78
2022/01/10 11:48:55;;;;;;;14.50;7.47;;;4.10;99.90;;;;;;5047187;28;20037;-77
2022/01/10 11:51:24;;;;;;;24.58;7.28;;;4.20;99.90;;;;;;5047274;28;20041;-78
2022/01/10 11:53:59;;;;;;;12.93;8.20;;;4.10;99.90;;;;;;5045961;28;20191;-79
2022/01/10 11:56:33;;;;;;;15.98;8.30;;;4.20;99.90;;;;;;5043694;28;20049;-78
2022/01/10 11:59:11;;;;;;;18.33;5.95;;;4.30;99.90;;;;;;5028892;28;20482;-81
2022/01/10 12:01:40;;;;;;;12.98;7.35;;;4.30;99.90;;;;;;5027104;28;20041;-80
2022/01/10 12:04:06;;;;;;;14.38;6.22;;;4.40;99.90;;;;;;5039885;28;20037;-77
2022/01/10 12:06:32;;;;;;;8.55;6.13;;;4.40;99.90;;;;;;5048685;28;20047;-81
2022/01/10 12:08:58;;;;;;;13.40;6.53;;;4.50;99.90;;;;;;5037416;28;20041;-78
2022/01/10 12:11:25;;;;;;;;;;;4.50;99.90;;;;;;5045973;28;20049;-81
2022/01/10 12:13:53;;;;;;;7.82;5.00;;;4.60;99.90;;;;;;5031738;28;19928;-77
2022/01/10 12:16:20;;;;;;;17.38;8.07;;;4.60;99.90;;;;;;5030677;28;20045;-82
2022/01/10 12:18:46;;;;;;;7.43;5.25;;;4.70;99.90;;;;;;5042733;28;20416;-79
2022/01/10 12:21:13;;;;;;;7.25;6.03;;;4.60;99.90;;;;;;5030194;28;20041;-81
2022/01/10 12:23:39;;;;;;;10.73;6.15;;;4.70;99.90;;;;;;5051790;28;20044;-78
2022/01/10 12:26:05;;;;;;;;;;;4.70;99.90;;;;;;5051058;28;20701;-77
2022/01/10 12:28:31;;;;;;;17.23;6.10;;;4.80;99.90;;;;;;5047801;28;19951;-79
2022/01/10 12:31:02;;;;;;;8.38;6.80;;;4.80;99.90;;;;;;5045203;28;20056;-78
2022/01/10 12:33:28;;;;;;;11.25;5.47;;;5.20;99.90;;;;;;5044710;28;20120;-80
2022/01/10 12:35:54;;;;;;;13.35;5.88;;;4.90;99.90;;;;;;5033172;28;20522;-79
2022/01/10 12:38:21;;;;;;;10.25;5.50;;;5.00;99.90;;;;;;5042905;28;20049;-78
2022/01/10 12:40:50;;;;;;;9.25;4.57;;;5.00;99.90;;;;;;5035638;28;20091;-77
2022/01/10 12:43:15;;;;;;;11.23;5.70;;;5.20;99.90;;;;;;5049434;28;20052;-78
2022/01/10 12:45:42;;;;;;;6.78;4.03;;;5.70;99.90;;;;;;5052244;28;20041;-80
2022/01/10 12:48:11;;;;;;;8.65;4.30;;;5.20;99.90;;;;;;5019088;28;20045;-78
2022/01/10 12:50:37;;;;;;;11.23;5.35;;;5.20;99.90;;;;;;5052323;28;20123;-79
2022/01/10 12:53:04;;;;;;;8.27;4.30;;;5.40;99.90;;;;;;5048377;28;20675;-81
2022/01/10 12:55:29;;;;;;;;;;;5.30;99.90;;;;;;5055682;28;20071;-75
2022/01/10 12:57:55;;;;;;;6.25;4.38;;;5.40;99.90;;;;;;5059037;28;19921;-83
2022/01/10 13:00:21;;;;;;;11.63;6.20;;;5.40;99.90;;;;;;5049199;28;20075;-80
2022/01/10 13:02:47;;;;;;;14.52;5.95;;;5.40;99.90;;;;;;5067497;28;20124;-82